Time;durP1;ratioP1;P1;durP2;ratioP2;P2;SDS_P1;SDS_P2;PMS_P1;PMS_P2;Temp;Humidity;BMP_temperature;BMP_pressure;BME280_temperature;BME280_humidity;BME280_pressure;Samples;Min_cycle;Max_cycle;Signal;HPM_P1;HPM_P2
2023/06/21 00:02:23;;;;;;;4.33;2.57;;;;;;;;;;4955286;29;20203;-82
2023/06/21 00:04:52;;;;;;;4.20;3.10;;;;;;;;;;4955155;28;20203;-82
2023/06/21 00:07:23;;;;;;;3.28;2.80;;;;;;;;;;4955192;29;20207;-82
2023/06/21 00:09:52;;;;;;;4.13;2.80;;;;;;;;;;4955050;29;20325;-82
2023/06/21 00:12:19;;;;;;;2.90;2.53;;;;;;;;;;4955409;29;20286;-82
2023/06/21 00:14:46;;;;;;;3.10;2.63;;;;;;;;;;4954623;29;20291;-83
2023/06/21 00:17:14;;;;;;;4.07;3.27;;;;;;;;;;4954780;29;20278;-82
2023/06/21 00:19:41;;;;;;;3.63;2.80;;;;;;;;;;4955365;29;20211;-82
2023/06/21 00:22:08;;;;;;;3.17;2.53;;;;;;;;;;4954731;29;20226;-82
2023/06/21 00:24:35;;;;;;;3.70;2.90;;;;;;;;;;4955163;28;20291;-82
2023/06/21 00:27:05;;;;;;;3.63;2.87;;;;;;;;;;4955148;28;20198;-82
2023/06/21 00:29:32;;;;;;;3.80;2.80;;;;;;;;;;4954963;28;20258;-82
2023/06/21 00:32:00;;;;;;;3.10;2.80;;;;;;;;;;4954352;28;20279;-82
2023/06/21 00:34:27;;;;;;;4.37;3.17;;;;;;;;;;4954454;29;20556;-82
2023/06/21 00:36:54;;;;;;;4.10;3.10;;;;;;;;;;4954810;29;20231;-82
2023/06/21 00:39:21;;;;;;;4.03;3.20;;;;;;;;;;4954478;28;20694;-81
2023/06/21 00:41:48;;;;;;;3.30;3.00;;;;;;;;;;4954271;29;20759;-82
2023/06/21 00:44:17;;;;;;;5.33;3.53;;;;;;;;;;4954969;29;20295;-82
2023/06/21 00:46:44;;;;;;;4.90;3.30;;;;;;;;;;4953865;29;20306;-81
2023/06/21 00:49:11;;;;;;;4.63;3.60;;;;;;;;;;4954309;29;20314;-82
2023/06/21 00:51:39;;;;;;;4.63;3.47;;;;;;;;;;4954276;28;20578;-81
2023/06/21 00:54:06;;;;;;;3.83;3.43;;;;;;;;;;4954676;28;20206;-82
2023/06/21 00:56:34;;;;;;;4.07;3.63;;;;;;;;;;4954177;29;20210;-82
2023/06/21 00:59:04;;;;;;;4.20;3.80;;;;;;;;;;4954618;28;20226;-82
2023/06/21 01:01:34;;;;;;;4.70;3.70;;;;;;;;;;4954262;29;20199;-82
2023/06/21 01:04:01;;;;;;;5.00;3.80;;;;;;;;;;4953922;29;20711;-81
2023/06/21 01:06:32;;;;;;;6.70;3.90;;;;;;;;;;4953817;29;20195;-82
2023/06/21 01:09:04;;;;;;;4.70;3.63;;;;;;;;;;4954179;29;20318;-82
2023/06/21 01:11:32;;;;;;;5.97;4.00;;;;;;;;;;4954130;28;20227;-82
2023/06/21 01:14:07;;;;;;;5.60;3.90;;;;;;;;;;4953637;29;20294;-82
2023/06/21 01:16:39;;;;;;;4.90;3.90;;;;;;;;;;4953562;28;20238;-82
2023/06/21 01:19:07;;;;;;;4.20;3.67;;;;;;;;;;4953944;29;20204;-82
2023/06/21 01:21:36;;;;;;;5.27;3.40;;;;;;;;;;4954165;29;20262;-82
2023/06/21 01:24:21;;;;;;;6.33;3.50;;;;;;;;;;4953649;29;20231;-82
2023/06/21 01:26:58;;;;;;;4.90;3.27;;;;;;;;;;4952873;28;20591;-82
2023/06/21 01:29:29;;;;;;;5.03;3.53;;;;;;;;;;4953573;29;20231;-82
2023/06/21 01:31:57;;;;;;;4.50;3.40;;;;;;;;;;4954123;29;20199;-82
2023/06/21 01:34:24;;;;;;;4.50;3.60;;;;;;;;;;4953780;29;20203;-82
2023/06/21 01:36:52;;;;;;;5.07;3.50;;;;;;;;;;4953432;28;20751;-82
2023/06/21 01:39:19;;;;;;;5.63;3.70;;;;;;;;;;4953430;29;20592;-82
2023/06/21 01:41:47;;;;;;;5.60;3.60;;;;;;;;;;4953514;28;20266;-83
2023/06/21 01:44:16;;;;;;;3.90;3.47;;;;;;;;;;4953508;28;20210;-82
2023/06/21 01:46:45;;;;;;;4.93;3.40;;;;;;;;;;4953452;29;20210;-82
2023/06/21 01:49:13;;;;;;;4.87;3.43;;;;;;;;;;4953490;29;20313;-82
2023/06/21 01:51:41;;;;;;;3.87;3.10;;;;;;;;;;4953347;29;20306;-82
2023/06/21 01:54:09;;;;;;;6.13;3.47;;;;;;;;;;4952607;28;20250;-82
2023/06/21 01:56:38;;;;;;;4.80;3.50;;;;;;;;;;4953049;29;20807;-82
2023/06/21 01:59:05;;;;;;;4.10;3.30;;;;;;;;;;4953045;28;20562;-82
2023/06/21 02:01:33;;;;;;;3.93;3.40;;;;;;;;;;4946028;29;20238;-81
2023/06/21 02:04:02;;;;;;;3.73;3.17;;;;;;;;;;4934337;29;20210;-82
2023/06/21 02:06:30;;;;;;;3.50;3.20;;;;;;;;;;4934267;29;20294;-82
2023/06/21 02:08:59;;;;;;;4.00;3.43;;;;;;;;;;4933598;29;20319;-82
2023/06/21 02:11:26;;;;;;;6.53;3.60;;;;;;;;;;4937210;29;20231;-82
2023/06/21 02:13:53;;;;;;;6.20;3.63;;;;;;;;;;4940511;29;20295;-82
2023/06/21 02:16:25;;;;;;;4.40;3.40;;;;;;;;;;4956644;29;20654;-82
2023/06/21 02:18:52;;;;;;;4.37;3.63;;;;;;;;;;4959399;28;20281;-82
2023/06/21 02:21:20;;;;;;;5.20;3.97;;;;;;;;;;4959796;29;20286;-82
2023/06/21 02:23:48;;;;;;;4.30;3.67;;;;;;;;;;4959241;28;20223;-82
2023/06/21 02:26:15;;;;;;;3.93;3.40;;;;;;;;;;4959947;29;20286;-82
2023/06/21 02:28:42;;;;;;;4.17;3.27;;;;;;;;;;4959621;28;20618;-81
2023/06/21 02:31:09;;;;;;;6.70;3.50;;;;;;;;;;4959575;29;20195;-82
2023/06/21 02:33:36;;;;;;;5.60;3.40;;;;;;;;;;4959586;29;20302;-82
2023/06/21 02:36:04;;;;;;;4.97;3.37;;;;;;;;;;4959966;29;20226;-81
2023/06/21 02:38:32;;;;;;;5.07;4.00;;;;;;;;;;4959245;29;20230;-81
2023/06/21 02:40:59;;;;;;;5.00;3.60;;;;;;;;;;4959123;28;20722;-81
2023/06/21 02:43:27;;;;;;;4.57;3.67;;;;;;;;;;4959510;28;20241;-82
2023/06/21 02:45:54;;;;;;;6.90;3.70;;;;;;;;;;4959473;28;20203;-82
2023/06/21 02:48:21;;;;;;;4.43;3.60;;;;;;;;;;4959521;28;20646;-81
2023/06/21 02:50:48;;;;;;;4.93;3.47;;;;;;;;;;4959543;29;20257;-82
2023/06/21 02:53:16;;;;;;;6.63;4.10;;;;;;;;;;4959285;29;20286;-82
2023/06/21 02:55:44;;;;;;;4.50;4.10;;;;;;;;;;4959548;28;20570;-81
2023/06/21 02:58:12;;;;;;;4.67;4.17;;;;;;;;;;4959323;29;20780;-80
2023/06/21 03:00:40;;;;;;;5.20;3.87;;;;;;;;;;4959185;28;20289;-82
2023/06/21 03:03:08;;;;;;;6.27;4.57;;;;;;;;;;4959431;28;20245;-81
2023/06/21 03:05:35;;;;;;;5.10;4.60;;;;;;;;;;4959007;28;20234;-82
2023/06/21 03:08:03;;;;;;;4.90;4.20;;;;;;;;;;4959209;28;20213;-82
2023/06/21 03:10:32;;;;;;;5.30;4.23;;;;;;;;;;4959076;28;20237;-82
2023/06/21 03:13:01;;;;;;;4.67;4.00;;;;;;;;;;4959420;29;20204;-82
2023/06/21 03:15:28;;;;;;;4.60;4.10;;;;;;;;;;4959086;28;20313;-82
2023/06/21 03:17:55;;;;;;;4.90;4.10;;;;;;;;;;4963416;28;20229;-82
2023/06/21 03:20:24;;;;;;;6.13;4.50;;;;;;;;;;4978881;28;20207;-82
2023/06/21 03:22:51;;;;;;;4.57;4.13;;;;;;;;;;4975454;28;20218;-82
2023/06/21 03:25:19;;;;;;;7.43;4.63;;;;;;;;;;4975125;28;20226;-82
2023/06/21 03:27:47;;;;;;;5.20;4.67;;;;;;;;;;4975197;28;20202;-82
2023/06/21 03:30:16;;;;;;;6.83;4.37;;;;;;;;;;4975367;28;20262;-81
2023/06/21 03:32:46;;;;;;;6.37;4.60;;;;;;;;;;4975644;28;20205;-82
2023/06/21 03:35:14;;;;;;;4.70;4.20;;;;;;;;;;4974950;28;20198;-82
2023/06/21 03:37:41;;;;;;;5.87;4.20;;;;;;;;;;4975042;28;20209;-82
2023/06/21 03:40:11;;;;;;;6.27;4.23;;;;;;;;;;4974522;28;20241;-80
2023/06/21 03:42:39;;;;;;;6.50;3.97;;;;;;;;;;4975329;28;20199;-83
2023/06/21 03:45:07;;;;;;;6.30;4.60;;;;;;;;;;4974862;28;20209;-81
2023/06/21 03:47:37;;;;;;;6.03;4.73;;;;;;;;;;4974849;28;20203;-82
2023/06/21 03:50:04;;;;;;;9.50;4.70;;;;;;;;;;4974557;28;20227;-81
2023/06/21 03:52:31;;;;;;;5.33;4.60;;;;;;;;;;4974264;28;20640;-82
2023/06/21 03:54:59;;;;;;;8.03;4.70;;;;;;;;;;4974884;28;20257;-81
2023/06/21 03:57:26;;;;;;;5.57;4.90;;;;;;;;;;4974886;28;20635;-82
2023/06/21 03:59:53;;;;;;;6.90;5.20;;;;;;;;;;4974679;28;20590;-82
2023/06/21 04:02:21;;;;;;;7.30;5.03;;;;;;;;;;4974924;28;20294;-82
2023/06/21 04:04:49;;;;;;;6.67;5.00;;;;;;;;;;4974583;28;20286;-80
2023/06/21 04:07:19;;;;;;;7.27;5.73;;;;;;;;;;4974539;28;20582;-82
2023/06/21 04:09:46;;;;;;;6.30;5.40;;;;;;;;;;4974926;28;20230;-81
2023/06/21 04:12:13;;;;;;;8.10;5.17;;;;;;;;;;4974635;28;20285;-82
2023/06/21 04:14:41;;;;;;;6.63;5.20;;;;;;;;;;4971888;28;20254;-81
2023/06/21 04:17:08;;;;;;;6.57;4.70;;;;;;;;;;4955434;29;20720;-82
2023/06/21 04:19:35;;;;;;;9.17;5.40;;;;;;;;;;4954373;28;20207;-82
2023/06/21 04:22:04;;;;;;;6.77;5.53;;;;;;;;;;4955032;28;20262;-81
2023/06/21 04:24:31;;;;;;;6.57;5.60;;;;;;;;;;4955186;29;20756;-82
2023/06/21 04:26:59;;;;;;;6.93;5.10;;;;;;;;;;4954877;29;20211;-81
2023/06/21 04:29:26;;;;;;;7.13;4.73;;;;;;;;;;4954885;28;20266;-82
2023/06/21 04:31:55;;;;;;;7.00;4.83;;;;;;;;;;4955018;29;20199;-81
2023/06/21 04:34:22;;;;;;;6.37;5.10;;;;;;;;;;4954548;28;20274;-81
2023/06/21 04:36:49;;;;;;;6.23;4.37;;;;;;;;;;4954632;28;20282;-82
2023/06/21 04:39:20;;;;;;;7.17;5.30;;;;;;;;;;4954772;28;20290;-81
2023/06/21 04:41:47;;;;;;;8.20;5.40;;;;;;;;;;4955332;29;20670;-81
2023/06/21 04:44:17;;;;;;;7.43;5.70;;;;;;;;;;4955005;29;20290;-82
2023/06/21 04:46:44;;;;;;;5.47;4.00;;;;;;;;;;4954666;29;20643;-82
2023/06/21 04:49:11;;;;;;;5.67;3.80;;;;;;;;;;4954336;29;20282;-81
2023/06/21 04:51:38;;;;;;;5.57;4.53;;;;;;;;;;4954298;28;20286;-81
2023/06/21 04:54:07;;;;;;;5.83;4.53;;;;;;;;;;4954722;28;20222;-81
2023/06/21 04:56:36;;;;;;;5.53;4.23;;;;;;;;;;4954515;28;20286;-82
2023/06/21 04:59:03;;;;;;;7.50;4.50;;;;;;;;;;4954474;29;20206;-81
2023/06/21 05:01:32;;;;;;;6.67;4.80;;;;;;;;;;4954479;28;20225;-82
2023/06/21 05:04:00;;;;;;;7.40;5.40;;;;;;;;;;4954022;28;20195;-81
2023/06/21 05:06:27;;;;;;;7.50;5.57;;;;;;;;;;4954373;28;20206;-81
2023/06/21 05:08:54;;;;;;;7.30;5.20;;;;;;;;;;4953761;29;20207;-80
2023/06/21 05:11:21;;;;;;;5.23;4.73;;;;;;;;;;4954041;29;20226;-79
2023/06/21 05:13:50;;;;;;;6.60;5.13;;;;;;;;;;4954142;29;20215;-80
2023/06/21 05:16:17;;;;;;;6.40;5.30;;;;;;;;;;4953370;29;20294;-78
2023/06/21 05:18:44;;;;;;;8.07;5.37;;;;;;;;;;4953419;29;20238;-80
2023/06/21 05:21:11;;;;;;;8.07;5.97;;;;;;;;;;4953508;28;20286;-80
2023/06/21 05:23:38;;;;;;;8.73;6.13;;;;;;;;;;4953827;29;20373;-79
2023/06/21 05:26:06;;;;;;;9.37;6.30;;;;;;;;;;4954065;29;20230;-78
2023/06/21 05:28:33;;;;;;;9.70;6.27;;;;;;;;;;4953818;28;20299;-79
2023/06/21 05:31:01;;;;;;;8.37;6.20;;;;;;;;;;4953915;29;20322;-80
2023/06/21 05:33:28;;;;;;;9.83;5.67;;;;;;;;;;4953380;28;20677;-78
2023/06/21 05:35:56;;;;;;;12.33;6.10;;;;;;;;;;4962057;28;20243;-79
2023/06/21 05:38:23;;;;;;;7.00;5.87;;;;;;;;;;4972633;28;20301;-78
2023/06/21 05:40:50;;;;;;;9.30;5.50;;;;;;;;;;4972105;28;20226;-79
2023/06/21 05:43:17;;;;;;;6.23;5.03;;;;;;;;;;4963420;28;20603;-79
2023/06/21 05:45:44;;;;;;;6.83;5.30;;;;;;;;;;4945757;28;20204;-79
2023/06/21 05:48:13;;;;;;;12.15;5.20;;;;;;;;;;4950584;29;20767;-79
2023/06/21 05:50:40;;;;;;;6.45;4.55;;;;;;;;;;4951215;28;20605;-78
2023/06/21 05:53:08;;;;;;;6.53;4.80;;;;;;;;;;4951140;29;20710;-79
2023/06/21 05:55:35;;;;;;;7.93;5.20;;;;;;;;;;4950973;29;20696;-79
2023/06/21 05:58:02;;;;;;;8.23;5.55;;;;;;;;;;4951455;29;20290;-79
2023/06/21 06:00:30;;;;;;;8.27;5.00;;;;;;;;;;4951035;29;20873;-78
2023/06/21 06:02:57;;;;;;;7.18;5.25;;;;;;;;;;4953239;28;20203;-78
2023/06/21 06:05:26;;;;;;;6.38;4.70;;;;;;;;;;4951070;28;20294;-78
2023/06/21 06:07:53;;;;;;;5.50;4.88;;;;;;;;;;4947777;28;20302;-80
2023/06/21 06:10:20;;;;;;;8.63;5.38;;;;;;;;;;4962377;28;20235;-82
2023/06/21 06:12:47;;;;;;;6.85;4.13;;;;;;;;;;4947909;28;20242;-79
2023/06/21 06:15:14;;;;;;;5.55;4.63;;;;;;;;;;4948967;28;20294;-81
2023/06/21 06:17:42;;;;;;;8.18;4.95;;;;;;;;;;4933305;29;20259;-80
2023/06/21 06:20:09;;;;;;;5.57;4.63;;;;;;;;;;4942046;28;20310;-80
2023/06/21 06:22:39;;;;;;;7.50;5.03;;;;;;;;;;4952875;29;20666;-78
2023/06/21 06:25:07;;;;;;;7.20;4.70;;;;;;;;;;4961784;28;20298;-80
2023/06/21 06:27:34;;;;;;;12.70;4.93;;;;;;;;;;4967083;28;20286;-79
2023/06/21 06:30:01;;;;;;;10.48;5.15;;;;;;;;;;4951979;28;20227;-79
2023/06/21 06:32:28;;;;;;;7.35;4.50;;;;;;;;;;4963110;28;20376;-80
2023/06/21 06:34:56;;;;;;;9.32;5.10;;;;;;;;;;4971855;28;20286;-80
2023/06/21 06:37:24;;;;;;;6.35;4.28;;;;;;;;;;4971747;28;20671;-79
2023/06/21 06:39:53;;;;;;;6.18;3.88;;;;;;;;;;4970854;28;20233;-79
2023/06/21 06:42:20;;;;;;;4.88;3.28;;;;;;;;;;4952784;28;20223;-78
2023/06/21 06:44:48;;;;;;;4.78;3.30;;;;;;;;;;4951489;28;20242;-78
2023/06/21 06:47:15;;;;;;;4.88;3.70;;;;;;;;;;4952725;29;20286;-79
2023/06/21 06:49:42;;;;;;;3.30;3.00;;;;;;;;;;4952168;29;20286;-79
2023/06/21 06:52:11;;;;;;;4.38;3.20;;;;;;;;;;4952437;29;20673;-78
2023/06/21 06:54:38;;;;;;;3.95;3.55;;;;;;;;;;4952444;28;20203;-78
2023/06/21 06:57:07;;;;;;;3.78;3.10;;;;;;;;;;4954797;28;20320;-78
2023/06/21 06:59:34;;;;;;;4.25;2.88;;;;;;;;;;4974973;28;20697;-78
2023/06/21 07:02:01;;;;;;;3.25;2.80;;;;;;;;;;4975246;28;20301;-79
2023/06/21 07:04:29;;;;;;;4.07;2.78;;;;;;;;;;4956757;28;20294;-79
2023/06/21 07:06:58;;;;;;;3.88;2.40;;;;;;;;;;4966553;28;20212;-79
2023/06/21 07:09:25;;;;;;;2.80;2.58;;;;;;;;;;4975161;28;20202;-78
2023/06/21 07:11:56;;;;;;;4.03;2.60;;;;;;;;;;4974917;28;20313;-78
2023/06/21 07:14:25;;;;;;;3.22;2.38;;;;;;;;;;4973762;28;20199;-79
2023/06/21 07:16:52;;;;;;;3.08;2.30;;;;;;;;;;4955751;29;20313;-79
2023/06/21 07:19:19;;;;;;;5.38;2.00;;;;;;;;;;4954897;28;20207;-78
2023/06/21 07:21:47;;;;;;;2.67;2.05;;;;;;;;;;4954183;28;20301;-80
2023/06/21 07:24:15;;;;;;;1.95;1.50;;;;;;;;;;4955158;28;20199;-78
2023/06/21 07:26:42;;;;;;;2.72;1.60;;;;;;;;;;4954105;28;20203;-77
2023/06/21 07:29:09;;;;;;;2.08;1.55;;;;;;;;;;4954886;29;20219;-77
2023/06/21 07:31:38;;;;;;;2.83;1.60;;;;;;;;;;4960886;28;20310;-78
2023/06/21 07:34:07;;;;;;;2.45;1.63;;;;;;;;;;4974528;28;20206;-80
2023/06/21 07:36:34;;;;;;;2.75;1.75;;;;;;;;;;4974528;28;20194;-78
2023/06/21 07:39:02;;;;;;;2.38;1.52;;;;;;;;;;4974987;28;20214;-78
2023/06/21 07:41:29;;;;;;;4.80;2.10;;;;;;;;;;4955028;28;20203;-79
2023/06/21 07:43:57;;;;;;;2.88;1.80;;;;;;;;;;4950121;28;20298;-79
2023/06/21 07:46:24;;;;;;;2.60;1.95;;;;;;;;;;4954804;29;20253;-78
2023/06/21 07:48:52;;;;;;;3.28;1.70;;;;;;;;;;4953888;29;20235;-80
2023/06/21 07:51:20;;;;;;;4.25;2.08;;;;;;;;;;4949537;28;20313;-79
2023/06/21 07:53:47;;;;;;;2.33;2.00;;;;;;;;;;4954492;28;20202;-81
2023/06/21 07:56:16;;;;;;;2.10;1.83;;;;;;;;;;4955194;28;20278;-80
2023/06/21 07:58:43;;;;;;;2.65;2.20;;;;;;;;;;4954608;28;20207;-80
2023/06/21 08:01:12;;;;;;;2.55;1.98;;;;;;;;;;4955018;29;20258;-80
2023/06/21 08:03:39;;;;;;;2.80;2.03;;;;;;;;;;4954848;28;20580;-79
2023/06/21 08:06:08;;;;;;;2.55;2.00;;;;;;;;;;4956890;28;20207;-79
2023/06/21 08:08:35;;;;;;;3.95;2.30;;;;;;;;;;4953016;28;20234;-79
2023/06/21 08:11:02;;;;;;;3.45;2.15;;;;;;;;;;4954853;28;20282;-79
2023/06/21 08:13:30;;;;;;;2.63;2.10;;;;;;;;;;4953178;28;20356;-79
2023/06/21 08:15:57;;;;;;;3.13;2.08;;;;;;;;;;4948386;28;20213;-80
2023/06/21 08:18:24;;;;;;;2.63;2.20;;;;;;;;;;4957873;28;20226;-79
2023/06/21 08:20:51;;;;;;;3.05;2.30;;;;;;;;;;4958941;28;20234;-79
2023/06/21 08:23:20;;;;;;;3.83;2.40;;;;;;;;;;4953815;29;20219;-81
2023/06/21 08:25:48;;;;;;;2.95;2.38;;;;;;;;;;4940399;29;20250;-79
2023/06/21 08:28:15;;;;;;;2.65;2.45;;;;;;;;;;4942099;29;20219;-80
2023/06/21 08:30:43;;;;;;;3.00;2.25;;;;;;;;;;4963780;28;20321;-80
2023/06/21 08:33:10;;;;;;;3.03;2.20;;;;;;;;;;4959923;28;20238;-79
2023/06/21 08:35:37;;;;;;;4.65;2.25;;;;;;;;;;4951836;28;20203;-79
2023/06/21 08:38:07;;;;;;;4.28;2.30;;;;;;;;;;4950596;28;20251;-80
2023/06/21 08:40:38;;;;;;;2.75;2.42;;;;;;;;;;4941973;29;20207;-81
2023/06/21 08:43:05;;;;;;;3.05;2.33;;;;;;;;;;4934031;29;20761;-79
2023/06/21 08:45:33;;;;;;;2.67;2.40;;;;;;;;;;4951421;28;20274;-79
2023/06/21 08:48:01;;;;;;;2.92;2.53;;;;;;;;;;4953270;29;20301;-80
2023/06/21 08:50:30;;;;;;;3.63;2.40;;;;;;;;;;4952551;28;20210;-79
2023/06/21 08:52:59;;;;;;;3.05;2.20;;;;;;;;;;4954100;28;20231;-79
2023/06/21 08:55:27;;;;;;;3.63;2.40;;;;;;;;;;4952813;29;20291;-80
2023/06/21 08:57:57;;;;;;;3.60;2.50;;;;;;;;;;4952302;28;20230;-79
2023/06/21 09:00:26;;;;;;;3.92;2.47;;;;;;;;;;4951408;29;20290;-79
2023/06/21 09:02:57;;;;;;;3.45;2.40;;;;;;;;;;4952025;28;20743;-79
2023/06/21 09:05:37;;;;;;;2.88;2.22;;;;;;;;;;4952756;28;20708;-80
2023/06/21 09:08:04;;;;;;;3.05;2.58;;;;;;;;;;4946399;29;20199;-80
2023/06/21 09:10:32;;;;;;;2.85;2.22;;;;;;;;;;4953067;29;20298;-79
2023/06/21 09:13:03;;;;;;;3.75;2.25;;;;;;;;;;4953296;28;20195;-79
2023/06/21 09:15:30;;;;;;;5.72;2.40;;;;;;;;;;4952240;28;20672;-80
2023/06/21 09:17:58;;;;;;;5.28;2.50;;;;;;;;;;4953177;29;20816;-79
2023/06/21 09:20:28;;;;;;;2.60;2.35;;;;;;;;;;4951879;28;20648;-80
2023/06/21 09:22:57;;;;;;;2.53;2.22;;;;;;;;;;4952935;28;20678;-80
2023/06/21 09:25:25;;;;;;;3.88;2.42;;;;;;;;;;4951813;29;20218;-80
2023/06/21 09:27:52;;;;;;;2.28;2.08;;;;;;;;;;4952695;29;20711;-80
2023/06/21 09:30:21;;;;;;;3.92;2.17;;;;;;;;;;4951835;28;20246;-80
2023/06/21 09:32:49;;;;;;;2.30;2.10;;;;;;;;;;4947877;28;20230;-79
2023/06/21 09:35:16;;;;;;;3.10;2.20;;;;;;;;;;4951918;28;20301;-79
2023/06/21 09:37:44;;;;;;;2.92;2.20;;;;;;;;;;4952064;29;20234;-80
2023/06/21 09:40:11;;;;;;;5.05;2.45;;;;;;;;;;4951834;28;20285;-81
2023/06/21 09:42:40;;;;;;;3.25;2.40;;;;;;;;;;4952442;29;20695;-81
2023/06/21 09:45:11;;;;;;;2.92;2.40;;;;;;;;;;4961538;28;20234;-81
2023/06/21 09:47:41;;;;;;;2.22;2.03;;;;;;;;;;4949556;28;20289;-81
2023/06/21 09:50:09;;;;;;;2.22;2.00;;;;;;;;;;4953875;28;20286;-80
2023/06/21 09:52:36;;;;;;;2.50;2.20;;;;;;;;;;4951530;28;20398;-81
2023/06/21 09:55:04;;;;;;;3.28;2.30;;;;;;;;;;4950320;28;20207;-81
2023/06/21 09:57:31;;;;;;;3.95;2.30;;;;;;;;;;4952463;28;20286;-81
2023/06/21 10:00:00;;;;;;;2.97;2.22;;;;;;;;;;4957539;28;20923;-80
2023/06/21 10:02:27;;;;;;;2.50;2.10;;;;;;;;;;4944730;28;20234;-82
2023/06/21 10:04:55;;;;;;;3.72;2.13;;;;;;;;;;4948554;28;20241;-81
2023/06/21 10:07:26;;;;;;;3.08;2.13;;;;;;;;;;4947435;28;20299;-81
2023/06/21 10:09:54;;;;;;;3.58;2.28;;;;;;;;;;4967411;28;20265;-81
2023/06/21 10:12:21;;;;;;;2.80;2.25;;;;;;;;;;4947015;28;20309;-82
2023/06/21 10:14:48;;;;;;;3.20;2.33;;;;;;;;;;4947866;28;20227;-81
2023/06/21 10:17:17;;;;;;;2.40;2.20;;;;;;;;;;4947538;28;20860;-80
2023/06/21 10:19:44;;;;;;;3.83;2.38;;;;;;;;;;4945574;28;20286;-79
2023/06/21 10:22:16;;;;;;;3.58;2.35;;;;;;;;;;4943826;28;20617;-80
2023/06/21 10:24:44;;;;;;;4.20;2.53;;;;;;;;;;4942744;29;20195;-81
2023/06/21 10:27:11;;;;;;;3.70;2.28;;;;;;;;;;4943602;29;20305;-80
2023/06/21 10:29:41;;;;;;;3.42;2.60;;;;;;;;;;4942744;29;20286;-80
2023/06/21 10:32:09;;;;;;;4.40;2.20;;;;;;;;;;4946420;28;20231;-79
2023/06/21 10:34:42;;;;;;;3.17;1.92;;;;;;;;;;4946238;28;20286;-80
2023/06/21 10:37:12;;;;;;;3.13;2.03;;;;;;;;;;4944663;29;20245;-78
2023/06/21 10:39:42;;;;;;;3.60;2.10;;;;;;;;;;4942290;29;20567;-78
2023/06/21 10:42:10;;;;;;;3.05;2.40;;;;;;;;;;4937062;29;20227;-79
2023/06/21 10:44:38;;;;;;;3.90;2.25;;;;;;;;;;4937138;29;20711;-79
2023/06/21 10:47:05;;;;;;;2.67;2.40;;;;;;;;;;4955132;28;20294;-81
2023/06/21 10:49:32;;;;;;;3.83;2.35;;;;;;;;;;4946757;29;20635;-80
2023/06/21 10:51:59;;;;;;;2.65;2.22;;;;;;;;;;4954402;28;20312;-80
2023/06/21 10:54:27;;;;;;;2.80;2.22;;;;;;;;;;4956513;29;20209;-79
2023/06/21 10:56:56;;;;;;;3.65;2.35;;;;;;;;;;4955894;28;20210;-80
2023/06/21 10:59:24;;;;;;;3.20;2.30;;;;;;;;;;4951318;29;20199;-81
2023/06/21 11:01:52;;;;;;;2.78;2.40;;;;;;;;;;4954137;29;20298;-80
2023/06/21 11:04:19;;;;;;;3.88;2.60;;;;;;;;;;4955701;29;20720;-80
2023/06/21 11:06:46;;;;;;;8.63;2.80;;;;;;;;;;4955614;29;20227;-81
2023/06/21 11:09:18;;;;;;;4.75;2.63;;;;;;;;;;4955917;29;20290;-82
2023/06/21 11:11:55;;;;;;;2.42;2.20;;;;;;;;;;4955557;29;20231;-80
2023/06/21 11:14:23;;;;;;;2.92;2.08;;;;;;;;;;4950759;29;20199;-81
2023/06/21 11:17:05;;;;;;;4.53;2.60;;;;;;;;;;4950287;28;20317;-81
2023/06/21 11:19:33;;;;;;;4.93;2.63;;;;;;;;;;4958178;28;20198;-80
2023/06/21 11:22:14;;;;;;;3.45;2.20;;;;;;;;;;4955111;28;20298;-80
2023/06/21 11:24:50;;;;;;;2.83;2.30;;;;;;;;;;4955010;29;20289;-80
2023/06/21 11:27:18;;;;;;;2.28;1.75;;;;;;;;;;4951961;28;20226;-81
2023/06/21 11:29:56;;;;;;;2.63;2.08;;;;;;;;;;4955230;29;20968;-80
2023/06/21 11:32:23;;;;;;;2.72;1.90;;;;;;;;;;4944119;28;20227;-81
2023/06/21 11:34:56;;;;;;;2.95;2.17;;;;;;;;;;4946095;28;20293;-81
2023/06/21 11:37:36;;;;;;;4.25;2.22;;;;;;;;;;4949464;28;20586;-82
2023/06/21 11:40:05;;;;;;;5.25;2.70;;;;;;;;;;4944660;29;20258;-81
2023/06/21 11:42:37;;;;;;;3.53;2.30;;;;;;;;;;4950294;28;20199;-82
2023/06/21 11:45:20;;;;;;;3.03;2.40;;;;;;;;;;4947979;28;20289;-81
2023/06/21 11:48:12;;;;;;;3.03;2.45;;;;;;;;;;4952865;28;20290;-79
2023/06/21 11:50:43;;;;;;;3.05;2.53;;;;;;;;;;4949228;28;20207;-81
2023/06/21 11:53:14;;;;;;;2.90;2.40;;;;;;;;;;4955133;28;20231;-81
2023/06/21 11:55:41;;;;;;;3.35;2.50;;;;;;;;;;4955056;28;20199;-80
2023/06/21 11:58:10;;;;;;;3.08;2.40;;;;;;;;;;4952871;28;20303;-81
2023/06/21 12:00:37;;;;;;;4.10;2.45;;;;;;;;;;4954691;28;20206;-81
2023/06/21 12:03:06;;;;;;;5.60;2.65;;;;;;;;;;4954903;28;20203;-80
2023/06/21 12:05:49;;;;;;;3.60;2.40;;;;;;;;;;4955129;28;20265;-80
2023/06/21 12:08:16;;;;;;;3.08;2.30;;;;;;;;;;4946006;28;20348;-80
2023/06/21 12:10:44;;;;;;;3.03;2.40;;;;;;;;;;4945601;28;20670;-80
2023/06/21 12:13:14;;;;;;;3.53;2.35;;;;;;;;;;4947205;28;20310;-80
2023/06/21 12:15:46;;;;;;;3.25;2.58;;;;;;;;;;4950496;28;20202;-79
2023/06/21 12:18:14;;;;;;;3.45;2.50;;;;;;;;;;4946346;28;20616;-80
2023/06/21 12:20:41;;;;;;;3.08;2.30;;;;;;;;;;4951484;28;20200;-81
2023/06/21 12:23:09;;;;;;;3.92;2.30;;;;;;;;;;4949258;29;20210;-81
2023/06/21 12:25:43;;;;;;;4.30;2.40;;;;;;;;;;4952760;29;20788;-81
2023/06/21 12:28:11;;;;;;;3.83;2.83;;;;;;;;;;4954636;29;20206;-81
2023/06/21 12:30:48;;;;;;;3.83;2.40;;;;;;;;;;4954136;29;20703;-81
2023/06/21 12:33:15;;;;;;;3.75;2.55;;;;;;;;;;4953194;28;20321;-80
2023/06/21 12:35:43;;;;;;;4.20;2.45;;;;;;;;;;4950921;28;20205;-81
2023/06/21 12:38:11;;;;;;;2.92;2.40;;;;;;;;;;4948597;28;20294;-81
2023/06/21 12:40:38;;;;;;;2.70;2.40;;;;;;;;;;4946349;28;20639;-80
2023/06/21 12:43:05;;;;;;;5.00;2.58;;;;;;;;;;4951402;28;20298;-79
2023/06/21 12:45:32;;;;;;;3.38;2.50;;;;;;;;;;4951536;28;20227;-81
2023/06/21 12:48:01;;;;;;;3.85;2.58;;;;;;;;;;4951931;28;20290;-80
2023/06/21 12:50:28;;;;;;;2.92;2.30;;;;;;;;;;4948229;28;20696;-80
2023/06/21 12:53:00;;;;;;;4.22;2.38;;;;;;;;;;4943818;28;20601;-79
2023/06/21 12:55:27;;;;;;;4.55;2.60;;;;;;;;;;4934491;29;20215;-80
2023/06/21 12:57:54;;;;;;;4.88;2.70;;;;;;;;;;4934884;29;20673;-80
2023/06/21 13:00:24;;;;;;;3.35;2.70;;;;;;;;;;4935143;29;20231;-81
2023/06/21 13:02:51;;;;;;;2.92;2.20;;;;;;;;;;4934411;29;20211;-80
2023/06/21 13:05:19;;;;;;;3.00;2.70;;;;;;;;;;4934523;29;20239;-80
2023/06/21 13:07:47;;;;;;;3.45;2.50;;;;;;;;;;4934479;29;20224;-80
2023/06/21 13:10:14;;;;;;;3.10;2.80;;;;;;;;;;4934745;29;20368;-80
2023/06/21 13:12:41;;;;;;;5.30;2.78;;;;;;;;;;4938945;28;20262;-80
2023/06/21 13:15:09;;;;;;;4.13;2.70;;;;;;;;;;4966734;28;20290;-80
2023/06/21 13:17:37;;;;;;;4.47;2.80;;;;;;;;;;4953381;29;20262;-79
2023/06/21 13:20:06;;;;;;;3.65;2.70;;;;;;;;;;4953560;28;20203;-81
2023/06/21 13:22:34;;;;;;;3.13;2.80;;;;;;;;;;4953478;29;20199;-81
2023/06/21 13:25:02;;;;;;;3.45;3.15;;;;;;;;;;4954114;29;20294;-81
2023/06/21 13:27:29;;;;;;;3.20;2.78;;;;;;;;;;4953767;29;20211;-80
2023/06/21 13:29:57;;;;;;;3.03;2.42;;;;;;;;;;4953931;29;20290;-81
2023/06/21 13:32:24;;;;;;;2.88;2.60;;;;;;;;;;4953545;29;20274;-81
2023/06/21 13:34:52;;;;;;;4.13;2.85;;;;;;;;;;4953933;29;20231;-81
2023/06/21 13:37:19;;;;;;;3.95;2.40;;;;;;;;;;4942005;29;20243;-81
2023/06/21 13:39:47;;;;;;;2.60;2.40;;;;;;;;;;4944068;29;20202;-80
2023/06/21 13:42:14;;;;;;;3.22;2.65;;;;;;;;;;4943167;29;20203;-81
2023/06/21 13:44:42;;;;;;;4.18;2.50;;;;;;;;;;4942358;29;20691;-80
2023/06/21 13:47:09;;;;;;;3.78;2.58;;;;;;;;;;4944135;28;20645;-80
2023/06/21 13:49:36;;;;;;;4.80;2.53;;;;;;;;;;4943326;29;20196;-81
2023/06/21 13:52:04;;;;;;;3.88;2.80;;;;;;;;;;4943547;29;20192;-81
2023/06/21 13:54:31;;;;;;;2.88;2.58;;;;;;;;;;4946163;29;20260;-81
2023/06/21 13:57:03;;;;;;;4.03;2.70;;;;;;;;;;4950212;29;20213;-81
2023/06/21 13:59:35;;;;;;;3.17;2.50;;;;;;;;;;4952366;29;20227;-81
2023/06/21 14:02:02;;;;;;;3.05;2.60;;;;;;;;;;4952642;29;20680;-82
2023/06/21 14:04:29;;;;;;;5.35;2.50;;;;;;;;;;4950006;29;20785;-80
2023/06/21 14:06:57;;;;;;;3.30;2.47;;;;;;;;;;4933160;29;20235;-81
2023/06/21 14:09:24;;;;;;;4.15;2.83;;;;;;;;;;4933534;29;20298;-81
2023/06/21 14:11:51;;;;;;;3.50;2.70;;;;;;;;;;4937338;29;20290;-80
2023/06/21 14:14:19;;;;;;;4.63;2.80;;;;;;;;;;4942662;29;20330;-81
2023/06/21 14:16:46;;;;;;;4.30;2.80;;;;;;;;;;4945616;29;20232;-81
2023/06/21 14:19:14;;;;;;;3.28;2.60;;;;;;;;;;4934578;28;20230;-82
2023/06/21 14:21:41;;;;;;;3.13;2.53;;;;;;;;;;4970241;28;20552;-80
2023/06/21 14:24:08;;;;;;;5.28;2.65;;;;;;;;;;4960581;28;20230;-83
2023/06/21 14:26:36;;;;;;;4.78;3.00;;;;;;;;;;4944582;28;20287;-83
2023/06/21 14:29:03;;;;;;;2.97;2.70;;;;;;;;;;4943682;28;20195;-82
2023/06/21 14:31:32;;;;;;;4.97;2.72;;;;;;;;;;4943418;29;20203;-82
2023/06/21 14:33:59;;;;;;;3.10;2.70;;;;;;;;;;4941236;29;20696;-83
2023/06/21 14:36:26;;;;;;;3.15;2.67;;;;;;;;;;4942473;28;20298;-82
2023/06/21 14:38:53;;;;;;;4.95;2.95;;;;;;;;;;4941312;29;20278;-81
2023/06/21 14:41:23;;;;;;;3.97;3.00;;;;;;;;;;4942936;29;20195;-82
2023/06/21 14:43:50;;;;;;;3.75;2.70;;;;;;;;;;4943293;29;20196;-82
2023/06/21 14:46:17;;;;;;;4.43;2.70;;;;;;;;;;4943234;29;20294;-83
2023/06/21 14:48:45;;;;;;;5.13;2.67;;;;;;;;;;4947926;28;20294;-84
2023/06/21 14:51:14;;;;;;;3.05;2.75;;;;;;;;;;4940497;29;20752;-84